Time;durP1;ratioP1;P1;durP2;ratioP2;P2;SDS_P1;SDS_P2;PMS_P1;PMS_P2;Temp;Humidity;BMP_temperature;BMP_pressure;BME280_temperature;BME280_humidity;BME280_pressure;Samples;Min_cycle;Max_cycle;Signal;HPM_P1;HPM_P2
2023/02/05 00:01:11;;;;;;;7.27;6.43;;;;;;;4.07;63.81;97458.41;6068012;23;20676;-83
2023/02/05 00:03:41;;;;;;;7.03;6.03;;;;;;;4.02;63.29;97460.41;6066734;23;20212;-83
2023/02/05 00:06:09;;;;;;;7.30;6.60;;;;;;;3.99;63.59;97466.50;6068278;23;20180;-83
2023/02/05 00:08:35;;;;;;;7.93;6.77;;;;;;;3.95;63.68;97462.50;6067734;23;20204;-83
2023/02/05 00:11:08;;;;;;;7.00;6.30;;;;;;;3.88;63.93;97460.38;6067582;23;20177;-83
2023/02/05 00:13:34;;;;;;;8.70;6.40;;;;;;;3.88;63.73;97465.47;6067051;23;20666;-83
2023/02/05 00:16:01;;;;;;;8.73;6.67;;;;;;;3.85;64.24;97460.59;6068824;23;20189;-83
2023/02/05 00:18:27;;;;;;;8.67;6.70;;;;;;;3.84;64.29;97457.22;6067428;23;20205;-83
2023/02/05 00:20:53;;;;;;;8.60;6.03;;;;;;;3.84;64.06;97449.56;6068602;23;20743;-83
2023/02/05 00:23:21;;;;;;;6.93;6.23;;;;;;;3.79;63.96;97449.84;6067667;23;20208;-83
2023/02/05 00:25:47;;;;;;;6.87;6.17;;;;;;;3.59;64.18;97450.16;6052802;23;20699;-83
2023/02/05 00:28:14;;;;;;;6.60;5.93;;;;;;;3.62;64.70;97447.44;6068281;23;20204;-83
2023/02/05 00:30:41;;;;;;;6.70;6.10;;;;;;;3.70;64.34;97449.53;6068844;23;20203;-83
2023/02/05 00:33:07;;;;;;;8.13;6.07;;;;;;;3.72;64.46;97452.81;6067691;23;20216;-83
2023/02/05 00:35:34;;;;;;;6.50;5.47;;;;;;;3.73;64.42;97446.81;6068609;23;20200;-83
2023/02/05 00:38:00;;;;;;;6.70;5.97;;;;;;;3.76;64.55;97451.72;6068082;23;20524;-83
2023/02/05 00:40:28;;;;;;;7.23;6.10;;;;;;;3.79;64.62;97449.00;6051257;23;20212;-83
2023/02/05 00:42:54;;;;;;;7.00;6.30;;;;;;;3.76;64.95;97451.72;6067133;23;20585;-84
2023/02/05 00:45:20;;;;;;;8.10;7.30;;;;;;;3.72;64.99;97458.72;6068129;23;20188;-83
2023/02/05 00:47:47;;;;;;;13.10;8.83;;;;;;;3.68;65.20;97462.34;6067074;23;20185;-83
2023/02/05 00:50:13;;;;;;;15.70;10.77;;;;;;;3.64;65.58;97458.38;6068158;23;20192;-83
2023/02/05 00:52:40;;;;;;;18.37;12.67;;;;;;;3.61;66.14;97462.81;6067817;23;20256;-83
2023/02/05 00:55:07;;;;;;;18.67;13.87;;;;;;;3.65;66.11;97465.09;6051872;23;20209;-83
2023/02/05 00:57:34;;;;;;;24.47;14.73;;;;;;;3.71;65.97;97461.34;6068018;23;20418;-83
2023/02/05 01:00:01;;;;;;;20.87;14.27;;;;;;;3.75;66.18;97466.19;6067250;23;20231;-83
2023/02/05 01:02:27;;;;;;;18.97;12.97;;;;;;;3.81;66.42;97472.69;6067151;23;20200;-83
2023/02/05 01:04:55;;;;;;;12.57;9.90;;;;;;;3.73;66.17;97472.28;6067537;23;20213;-83
2023/02/05 01:07:21;;;;;;;11.93;9.40;;;;;;;3.75;65.63;97466.19;6067947;23;20665;-83
2023/02/05 01:09:47;;;;;;;14.40;10.47;;;;;;;3.67;66.05;97465.81;6067151;23;20216;-83
2023/02/05 01:12:14;;;;;;;14.67;10.00;;;;;;;3.63;66.43;97461.81;6051750;23;20617;-83
2023/02/05 01:14:42;;;;;;;16.40;10.80;;;;;;;3.58;66.63;97458.69;6068751;23;20209;-83
2023/02/05 01:17:09;;;;;;;11.73;9.17;;;;;;;3.54;66.57;97459.78;6069400;23;20181;-83
2023/02/05 01:19:36;;;;;;;12.50;9.50;;;;;;;3.54;67.00;97448.78;6069050;23;20215;-83
2023/02/05 01:22:03;;;;;;;11.60;8.80;;;;;;;3.54;66.69;97447.03;6069146;23;20201;-83
2023/02/05 01:24:29;;;;;;;10.80;8.67;;;;;;;3.59;66.61;97450.16;6068029;23;20207;-83
2023/02/05 01:26:57;;;;;;;9.40;7.70;;;;;;;3.61;66.57;97452.63;6069160;23;20183;-83
2023/02/05 01:29:24;;;;;;;10.97;7.97;;;;;;;3.63;66.57;97459.25;6039395;23;20208;-82
2023/02/05 01:31:51;;;;;;;10.03;7.57;;;;;;;3.67;66.50;97449.69;6063492;23;20193;-83
2023/02/05 01:34:18;;;;;;;9.77;8.07;;;;;;;3.66;66.95;97448.88;6068313;23;20287;-83
2023/02/05 01:36:44;;;;;;;11.80;9.00;;;;;;;3.36;67.73;97448.09;6069364;23;20181;-83
2023/02/05 01:39:11;;;;;;;11.33;8.63;;;;;;;3.30;67.89;97449.22;6068741;23;20216;-83
2023/02/05 01:41:40;;;;;;;10.27;8.47;;;;;;;3.39;67.85;97453.81;6038289;23;20209;-82
2023/02/05 01:44:10;;;;;;;10.63;8.53;;;;;;;3.47;67.73;97451.66;6065608;23;20235;-82
2023/02/05 01:46:38;;;;;;;10.70;8.10;;;;;;;3.46;67.63;97449.22;6070010;23;20176;-82
2023/02/05 01:49:08;;;;;;;9.67;7.87;;;;;;;3.44;67.86;97454.41;6068925;23;20244;-83
2023/02/05 01:51:37;;;;;;;13.57;7.93;;;;;;;3.41;67.88;97453.75;6068741;23;20181;-82
2023/02/05 01:54:04;;;;;;;11.93;8.27;;;;;;;3.22;69.23;97446.31;6068219;23;20204;-83
2023/02/05 01:56:33;;;;;;;9.50;7.50;;;;;;;3.32;68.67;97446.59;6068931;23;20213;-83
2023/02/05 01:59:05;;;;;;;12.03;7.60;;;;;;;3.40;68.44;97452.09;6068729;23;20209;-83
2023/02/05 02:01:32;;;;;;;11.97;7.60;;;;;;;3.46;68.20;97447.47;6052909;23;20220;-83
2023/02/05 02:04:03;;;;;;;11.13;7.93;;;;;;;3.42;68.58;97450.28;6068963;23;20743;-83
2023/02/05 02:06:32;;;;;;;8.77;7.53;;;;;;;3.39;68.43;97443.66;6069223;23;20562;-83
2023/02/05 02:08:58;;;;;;;9.57;7.40;;;;;;;3.45;68.49;97445.03;6068168;23;20212;-83
2023/02/05 02:11:28;;;;;;;9.03;7.87;;;;;;;3.45;68.34;97443.31;6053259;23;20586;-82
2023/02/05 02:13:57;;;;;;;8.97;7.10;;;;;;;3.45;68.33;97437.41;6068323;23;20219;-83
2023/02/05 02:16:24;;;;;;;8.00;6.80;;;;;;;3.42;68.23;97435.00;6069333;23;20207;-83
2023/02/05 02:18:52;;;;;;;9.80;7.23;;;;;;;3.41;68.51;97426.56;6069231;23;20215;-82
2023/02/05 02:21:57;;;;;;;7.97;6.93;;;;;;;3.46;68.31;97431.41;6068854;23;20695;-82
2023/02/05 02:25:15;;;;;;;7.30;6.53;;;;;;;3.29;68.66;97422.13;6068217;23;20211;-83
2023/02/05 02:27:48;;;;;;;7.60;6.73;;;;;;;3.28;68.91;97417.94;5952363;24;20184;-83
2023/02/05 02:30:22;;;;;;;8.87;7.10;;;;;;;3.28;68.94;97420.50;5952011;24;20256;-82
2023/02/05 02:32:57;;;;;;;7.80;6.63;;;;;;;3.28;68.96;97419.69;6012484;23;20220;-83
2023/02/05 02:35:30;;;;;;;7.73;6.63;;;;;;;3.32;68.79;97410.97;6068632;23;20160;-82
2023/02/05 02:38:03;;;;;;;6.97;6.03;;;;;;;3.41;68.87;97410.47;6068280;23;20161;-83
2023/02/05 02:40:37;;;;;;;8.67;7.00;;;;;;;3.43;69.02;97406.94;6068341;23;20161;-82
2023/02/05 02:43:09;;;;;;;10.30;6.57;;;;;;;3.37;68.78;97409.00;6068125;23;20486;-83
2023/02/05 02:45:43;;;;;;;10.40;7.03;;;;;;;3.41;69.12;97395.19;6068049;23;20157;-83
2023/02/05 02:48:12;;;;;;;8.87;7.03;;;;;;;3.36;68.79;97399.72;6068143;23;20219;-82
2023/02/05 02:50:43;;;;;;;7.73;6.60;;;;;;;3.25;69.47;97399.50;6069049;23;20517;-83
2023/02/05 02:53:12;;;;;;;8.20;6.60;;;;;;;3.29;69.10;97401.78;6067739;23;20604;-83
2023/02/05 02:55:42;;;;;;;7.17;6.37;;;;;;;3.35;68.65;97409.06;6069681;23;20181;-83
2023/02/05 02:58:14;;;;;;;7.83;6.60;;;;;;;3.41;68.36;97408.72;6068425;23;20204;-83
2023/02/05 03:00:43;;;;;;;7.10;6.23;;;;;;;3.40;68.51;97409.63;6069463;23;20165;-83
2023/02/05 03:03:13;;;;;;;7.20;6.50;;;;;;;3.34;68.57;97404.06;6067660;23;20215;-83
2023/02/05 03:05:43;;;;;;;7.60;6.47;;;;;;;3.25;68.78;97397.78;6052539;23;20215;-83
2023/02/05 03:08:15;;;;;;;7.53;6.27;;;;;;;3.24;68.54;97400.41;6068258;23;20209;-82
2023/02/05 03:10:46;;;;;;;7.13;6.03;;;;;;;3.28;68.94;97404.41;6052180;23;20264;-83
2023/02/05 03:13:14;;;;;;;7.97;6.37;;;;;;;3.34;68.47;97401.53;6067729;23;20208;-83
2023/02/05 03:15:43;;;;;;;11.20;6.73;;;;;;;3.29;68.56;97395.88;6069088;23;20177;-83
2023/02/05 03:18:10;;;;;;;7.37;5.97;;;;;;;3.34;68.98;97386.25;6067018;23;20212;-83
2023/02/05 03:20:41;;;;;;;7.83;6.37;;;;;;;3.29;68.92;97383.13;6053118;23;20211;-83
2023/02/05 03:23:08;;;;;;;9.33;6.73;;;;;;;3.28;68.43;97386.59;6067285;23;20543;-83
2023/02/05 03:25:34;;;;;;;6.93;6.03;;;;;;;2.96;69.74;97381.59;6068135;23;20180;-82
2023/02/05 03:28:01;;;;;;;7.17;6.43;;;;;;;3.05;69.66;97377.72;6068099;23;20315;-82
2023/02/05 03:30:35;;;;;;;7.27;6.43;;;;;;;3.00;69.63;97372.06;6053156;23;20216;-83
2023/02/05 03:33:15;;;;;;;7.57;6.27;;;;;;;3.06;69.57;97364.91;6067639;23;20212;-83
2023/02/05 03:35:49;;;;;;;7.97;6.80;;;;;;;3.05;69.12;97355.66;6068984;23;20544;-83
2023/02/05 03:38:28;;;;;;;6.80;6.10;;;;;;;2.98;69.43;97359.44;6068114;23;20208;-83
2023/02/05 03:41:01;;;;;;;7.50;6.47;;;;;;;3.04;69.39;97353.19;6067434;23;20197;-82
2023/02/05 03:43:39;;;;;;;8.23;6.43;;;;;;;3.10;69.50;97350.28;6067109;23;20205;-83
2023/02/05 03:46:15;;;;;;;9.33;6.17;;;;;;;3.05;69.26;97358.19;6068185;23;20172;-83
2023/02/05 03:48:51;;;;;;;7.07;6.17;;;;;;;3.08;69.20;97354.63;6067099;23;20277;-83
2023/02/05 03:51:26;;;;;;;7.40;6.20;;;;;;;3.06;69.37;97359.00;6068086;23;20617;-83
2023/02/05 03:54:03;;;;;;;8.17;6.70;;;;;;;3.09;69.25;97361.34;6067754;23;20208;-83
2023/02/05 03:56:37;;;;;;;6.97;5.90;;;;;;;3.05;69.70;97362.47;6067944;23;20613;-83
2023/02/05 03:59:04;;;;;;;8.00;6.60;;;;;;;3.06;69.68;97372.56;6067826;23;20204;-83
2023/02/05 04:01:33;;;;;;;8.80;6.37;;;;;;;3.05;69.18;97375.19;6067560;23;20530;-83
2023/02/05 04:04:00;;;;;;;7.70;6.63;;;;;;;2.95;69.10;97368.94;6067960;23;20212;-83
2023/02/05 04:06:26;;;;;;;7.60;6.20;;;;;;;2.89;69.31;97372.66;6068309;23;20183;-83
2023/02/05 04:08:53;;;;;;;6.60;5.93;;;;;;;2.85;69.42;97376.28;6067930;23;20730;-83
2023/02/05 04:11:19;;;;;;;9.80;6.43;;;;;;;2.85;69.54;97367.84;6038328;23;20209;-83
2023/02/05 04:13:45;;;;;;;8.47;6.80;;;;;;;2.80;69.64;97359.63;6062688;23;20208;-83
2023/02/05 04:16:12;;;;;;;6.83;6.03;;;;;;;2.78;69.79;97360.53;6068164;23;20649;-83
2023/02/05 04:18:39;;;;;;;6.73;5.87;;;;;;;2.81;69.63;97354.47;6067584;23;20233;-82
2023/02/05 04:21:06;;;;;;;8.07;6.50;;;;;;;2.86;69.53;97354.22;6052324;23;20227;-83
2023/02/05 04:23:32;;;;;;;6.80;6.10;;;;;;;2.90;69.12;97360.75;6067051;23;20220;-83
2023/02/05 04:25:59;;;;;;;6.50;5.90;;;;;;;2.87;68.95;97358.41;6068305;23;20192;-83
2023/02/05 04:28:25;;;;;;;10.50;6.23;;;;;;;2.89;68.96;97356.56;6067592;23;20215;-82
2023/02/05 04:30:52;;;;;;;8.50;6.10;;;;;;;2.89;68.72;97362.47;6067308;23;20850;-83
2023/02/05 04:33:18;;;;;;;8.27;6.10;;;;;;;2.90;68.93;97353.94;6067344;23;20219;-83
2023/02/05 04:35:46;;;;;;;8.70;6.77;;;;;;;2.83;68.59;97351.84;6068743;23;20180;-83
2023/02/05 04:38:12;;;;;;;7.97;6.30;;;;;;;2.73;69.12;97339.63;6067034;23;20212;-83
2023/02/05 04:40:38;;;;;;;8.93;6.30;;;;;;;2.73;68.98;97331.16;6067029;23;20645;-83
2023/02/05 04:43:05;;;;;;;10.07;6.10;;;;;;;2.80;69.00;97327.38;6067428;23;20209;-83
2023/02/05 04:45:32;;;;;;;7.60;6.43;;;;;;;2.81;69.09;97338.38;6036974;23;20652;-83
2023/02/05 04:47:59;;;;;;;6.70;6.00;;;;;;;2.74;68.92;97325.19;6064522;23;20187;-83
2023/02/05 04:50:25;;;;;;;8.37;5.80;;;;;;;2.74;69.22;97331.09;6053373;23;20248;-83
2023/02/05 04:52:53;;;;;;;7.63;5.80;;;;;;;2.80;69.27;97339.28;6066893;23;20200;-83
2023/02/05 04:55:19;;;;;;;6.63;5.93;;;;;;;2.79;69.60;97333.38;6068110;23;20192;-83
2023/02/05 04:57:46;;;;;;;9.13;6.47;;;;;;;2.82;69.17;97333.22;6067681;23;20180;-83
2023/02/05 05:00:13;;;;;;;8.87;6.40;;;;;;;2.84;68.75;97330.59;6067826;23;20512;-83
2023/02/05 05:02:40;;;;;;;7.37;6.33;;;;;;;2.78;68.60;97335.09;6067312;23;20672;-83
2023/02/05 05:05:06;;;;;;;6.90;6.20;;;;;;;2.81;68.63;97335.84;6067188;23;20197;-83
2023/02/05 05:07:33;;;;;;;9.03;6.10;;;;;;;2.70;69.00;97341.50;6067205;23;20181;-83
2023/02/05 05:10:00;;;;;;;6.77;6.03;;;;;;;2.62;69.48;97326.69;6066610;23;20212;-83
2023/02/05 05:12:27;;;;;;;8.33;6.63;;;;;;;2.50;69.79;97321.47;6051396;23;20264;-82
2023/02/05 05:14:53;;;;;;;8.00;6.20;;;;;;;2.50;69.98;97321.47;6066184;23;20714;-83
2023/02/05 05:17:20;;;;;;;8.17;6.27;;;;;;;2.56;69.63;97321.13;6067505;23;20177;-82
2023/02/05 05:19:46;;;;;;;8.70;6.43;;;;;;;2.51;69.79;97330.72;6067730;23;20599;-83
2023/02/05 05:22:12;;;;;;;7.17;5.97;;;;;;;2.53;69.71;97328.91;6066669;23;20201;-82
2023/02/05 05:24:39;;;;;;;6.57;5.67;;;;;;;2.51;70.05;97326.44;6066892;23;20208;-83
2023/02/05 05:27:07;;;;;;;6.90;6.00;;;;;;;2.51;69.88;97320.53;6067877;23;20185;-82
2023/02/05 05:29:33;;;;;;;6.33;5.60;;;;;;;2.47;70.21;97322.47;6066160;23;20204;-83
2023/02/05 05:31:59;;;;;;;6.97;6.13;;;;;;;2.55;70.09;97325.38;6067599;23;20201;-82
2023/02/05 05:34:26;;;;;;;5.57;5.00;;;;;;;2.56;69.87;97332.09;6067935;23;20555;-83
2023/02/05 05:36:52;;;;;;;6.50;5.90;;;;;;;2.55;70.15;97329.66;6067406;23;20185;-83
2023/02/05 05:44:51;;;;;;;7.20;5.50;;;;;;;2.48;70.03;97319.00;6067714;23;20288;-83
2023/02/05 05:47:17;;;;;;;6.17;5.53;;;;;;;2.43;70.42;97315.88;6067254;23;20649;-83
2023/02/05 05:49:45;;;;;;;6.50;5.80;;;;;;;2.46;70.21;97325.06;6067410;23;20544;-83
2023/02/05 05:52:11;;;;;;;7.20;5.53;;;;;;;2.46;70.25;97332.69;6068069;23;20200;-83
2023/02/05 05:54:38;;;;;;;6.67;5.60;;;;;;;2.43;70.11;97337.06;6067939;23;20209;-82
2023/02/05 05:57:05;;;;;;;6.27;5.63;;;;;;;2.46;70.16;97335.25;6068342;23;20216;-83
2023/02/05 05:59:31;;;;;;;6.73;6.00;;;;;;;2.39;70.11;97320.31;6068467;23;20235;-83
2023/02/05 06:02:00;;;;;;;7.40;5.77;;;;;;;2.43;69.97;97320.97;6070522;23;20252;-83
2023/02/05 06:04:27;;;;;;;7.70;6.30;;;;;;;2.39;69.57;97325.41;6068966;23;20213;-82
2023/02/05 06:06:53;;;;;;;8.97;5.60;;;;;;;2.31;69.72;97330.06;6070161;23;20544;-82
2023/02/05 06:09:20;;;;;;;6.03;5.43;;;;;;;2.35;69.85;97334.09;6068451;23;20685;-82
2023/02/05 06:11:47;;;;;;;8.03;5.80;;;;;;;2.36;70.08;97330.66;6068144;23;20228;-82
2023/02/05 06:14:13;;;;;;;7.17;5.80;;;;;;;2.38;69.98;97333.94;6068064;23;20212;-82
2023/02/05 06:16:40;;;;;;;6.27;5.43;;;;;;;2.39;69.75;97330.47;6069907;23;20181;-82
2023/02/05 06:19:08;;;;;;;6.20;5.60;;;;;;;2.43;69.38;97328.59;6067927;23;20208;-82
2023/02/05 06:21:34;;;;;;;7.70;6.03;;;;;;;2.27;69.62;97322.72;6069145;23;20180;-82
2023/02/05 06:24:01;;;;;;;7.03;5.50;;;;;;;2.20;69.81;97332.38;6068567;23;20239;-82
2023/02/05 06:26:27;;;;;;;6.27;5.33;;;;;;;2.17;70.45;97326.63;6054397;23;20212;-82
2023/02/05 06:28:56;;;;;;;6.30;5.70;;;;;;;2.14;70.31;97326.78;6069582;23;20268;-82
2023/02/05 06:31:22;;;;;;;6.37;5.30;;;;;;;2.10;70.54;97336.31;6058155;23;20228;-82
2023/02/05 06:33:48;;;;;;;6.20;5.60;;;;;;;2.20;70.88;97341.72;6075041;23;20209;-82
2023/02/05 06:36:16;;;;;;;7.07;6.03;;;;;;;2.27;70.38;97343.03;6076775;23;20184;-84
2023/02/05 06:38:43;;;;;;;6.53;5.27;;;;;;;2.17;70.84;97346.97;6074468;23;20205;-83
2023/02/05 06:41:09;;;;;;;6.37;5.30;;;;;;;2.15;70.58;97356.38;6073334;23;20181;-84
2023/02/05 06:43:35;;;;;;;6.00;5.17;;;;;;;2.18;70.34;97346.88;6078728;23;20212;-83
2023/02/05 06:46:02;;;;;;;7.53;5.43;;;;;;;2.24;70.13;97353.38;6075029;23;20177;-84
2023/02/05 06:48:28;;;;;;;5.50;5.00;;;;;;;2.29;70.20;97357.31;6074947;23;20707;-83
2023/02/05 06:50:55;;;;;;;5.60;4.97;;;;;;;2.37;69.90;97345.00;6047866;23;20224;-83
2023/02/05 06:53:22;;;;;;;6.53;5.07;;;;;;;2.36;69.48;97345.91;6075230;23;20427;-82
2023/02/05 06:55:49;;;;;;;7.50;5.40;;;;;;;2.37;69.62;97345.00;6071724;23;20180;-83
2023/02/05 06:58:15;;;;;;;7.73;5.23;;;;;;;2.40;69.64;97347.38;6071960;23;20205;-83
2023/02/05 07:00:42;;;;;;;6.80;5.30;;;;;;;2.42;69.18;97350.66;6073119;23;20177;-84
2023/02/05 07:03:08;;;;;;;5.70;5.10;;;;;;;2.51;69.25;97368.84;6071819;23;20209;-83
2023/02/05 07:05:35;;;;;;;6.87;5.20;;;;;;;2.57;69.15;97361.72;6072115;23;20185;-81
2023/02/05 07:08:02;;;;;;;5.50;5.00;;;;;;;2.60;69.42;97359.00;6069918;23;20213;-81
2023/02/05 07:10:30;;;;;;;5.10;4.60;;;;;;;2.65;69.35;97361.31;6054298;23;20224;-81
2023/02/05 07:12:56;;;;;;;6.27;5.20;;;;;;;2.84;68.89;97358.56;6069857;23;20204;-83
2023/02/05 07:15:23;;;;;;;5.60;5.00;;;;;;;2.96;68.23;97366.31;6067293;23;20181;-83
2023/02/05 07:17:49;;;;;;;5.73;4.90;;;;;;;3.25;67.96;97357.06;6066973;23;20180;-82
2023/02/05 07:20:17;;;;;;;7.63;4.80;;;;;;;3.72;66.78;97353.47;6053562;23;20600;-83
2023/02/05 07:22:45;;;;;;;7.97;5.30;;;;;;;4.29;65.14;97353.41;6070740;23;20201;-83
2023/02/05 07:25:12;;;;;;;5.87;5.27;;;;;;;4.77;63.00;97349.56;6069185;23;20793;-83
2023/02/05 07:27:40;;;;;;;6.20;5.33;;;;;;;5.21;61.87;97344.13;6068762;23;20188;-83
2023/02/05 07:30:07;;;;;;;6.13;5.37;;;;;;;5.58;61.08;97339.16;6068655;23;20204;-84
2023/02/05 07:32:34;;;;;;;5.77;5.17;;;;;;;5.95;60.45;97342.66;6068903;23;20196;-86
2023/02/05 07:35:00;;;;;;;5.60;4.97;;;;;;;5.77;59.35;97348.03;6068577;23;20212;-86
2023/02/05 07:37:27;;;;;;;5.60;5.10;;;;;;;5.70;59.58;97346.00;6053032;23;20213;-86
2023/02/05 07:39:56;;;;;;;5.20;4.63;;;;;;;5.37;59.80;97346.50;6069157;23;20208;-86
2023/02/05 07:42:22;;;;;;;6.00;5.27;;;;;;;5.13;60.70;97343.81;6070100;23;20201;-85
2023/02/05 07:44:50;;;;;;;5.30;4.77;;;;;;;5.12;61.11;97355.75;6072222;23;20219;-88
2023/02/05 07:47:17;;;;;;;5.07;4.57;;;;;;;5.29;60.54;97354.66;5993636;23;20213;-86
2023/02/05 07:49:43;;;;;;;4.40;4.00;;;;;;;5.38;60.38;97355.81;6063041;23;20217;-84
2023/02/05 07:52:09;;;;;;;5.60;4.73;;;;;;;5.43;60.40;97356.31;6070191;23;20196;-83
2023/02/05 07:54:36;;;;;;;4.77;4.23;;;;;;;5.55;59.46;97340.19;6068992;23;20556;-84
2023/02/05 07:57:02;;;;;;;4.50;4.10;;;;;;;5.33;59.07;97357.84;6054384;23;20663;-83
2023/02/05 07:59:29;;;;;;;4.60;4.10;;;;;;;5.30;59.83;97358.84;6069458;23;20212;-83
2023/02/05 08:01:56;;;;;;;4.20;3.70;;;;;;;5.24;59.83;97366.09;6068605;23;20897;-83
2023/02/05 08:04:23;;;;;;;4.30;3.90;;;;;;;5.43;59.56;97359.69;6068008;23;20232;-84
2023/02/05 08:06:49;;;;;;;4.67;4.00;;;;;;;5.62;59.18;97359.28;6039516;23;20273;-83
2023/02/05 08:09:16;;;;;;;4.43;4.03;;;;;;;5.92;58.56;97351.34;6065497;23;20205;-84
2023/02/05 08:11:42;;;;;;;4.20;3.80;;;;;;;6.27;58.01;97348.09;6053319;23;20212;-83
2023/02/05 08:14:09;;;;;;;4.40;4.00;;;;;;;6.53;56.69;97358.16;6069657;23;20211;-83
2023/02/05 08:16:35;;;;;;;4.30;3.90;;;;;;;6.73;55.48;97361.88;6069866;23;20189;-84
2023/02/05 08:19:06;;;;;;;4.07;3.67;;;;;;;7.01;55.25;97358.13;6069764;23;20212;-83
2023/02/05 08:21:33;;;;;;;4.30;3.90;;;;;;;7.03;54.53;97356.28;6069628;23;20502;-84
2023/02/05 08:24:00;;;;;;;4.20;3.63;;;;;;;7.09;54.35;97350.72;6069014;23;20217;-84
2023/02/05 08:26:27;;;;;;;4.23;3.70;;;;;;;7.24;53.92;97347.03;6040027;23;20212;-84
2023/02/05 08:28:58;;;;;;;4.33;3.93;;;;;;;7.26;53.03;97346.94;6065430;23;20219;-86
2023/02/05 08:31:25;;;;;;;5.47;3.53;;;;;;;7.35;53.20;97343.69;6070113;23;20218;-86
2023/02/05 08:33:53;;;;;;;4.80;3.60;;;;;;;7.60;52.63;97332.44;6069201;23;20224;-86
2023/02/05 08:36:21;;;;;;;4.00;3.60;;;;;;;7.77;53.23;97326.03;6070247;23;20187;-86
2023/02/05 08:38:48;;;;;;;4.10;3.67;;;;;;;7.82;52.63;97324.75;6069598;23;20211;-84
2023/02/05 08:41:14;;;;;;;3.80;3.50;;;;;;;7.87;52.02;97330.34;6069916;23;20636;-84
2023/02/05 08:43:44;;;;;;;4.67;3.70;;;;;;;7.71;52.37;97329.03;6069329;23;20743;-86
2023/02/05 08:46:13;;;;;;;3.97;3.57;;;;;;;7.52;52.58;97322.75;6069775;23;20187;-86
2023/02/05 08:48:40;;;;;;;4.57;4.07;;;;;;;7.27;52.67;97320.38;6069545;23;20216;-84
2023/02/05 08:51:14;;;;;;;5.13;4.50;;;;;;;7.16;53.43;97308.34;6070091;23;20665;-84
2023/02/05 08:53:45;;;;;;;5.40;4.30;;;;;;;7.26;53.64;97299.06;6069319;23;20203;-84
2023/02/05 08:56:12;;;;;;;5.50;4.13;;;;;;;7.42;53.13;97298.75;6071057;23;20597;-86
2023/02/05 08:58:39;;;;;;;4.93;4.40;;;;;;;7.61;52.67;97303.31;6069348;23;20276;-84
2023/02/05 09:01:09;;;;;;;4.80;4.23;;;;;;;7.62;52.99;97292.94;6069435;23;20188;-84
2023/02/05 09:03:36;;;;;;;4.67;4.20;;;;;;;7.61;52.38;97282.78;6069213;23;20213;-86
2023/02/05 09:06:05;;;;;;;3.90;3.50;;;;;;;7.67;52.90;97282.34;6070285;23;20187;-84
2023/02/05 09:08:31;;;;;;;4.10;3.73;;;;;;;7.73;53.54;97278.47;6054953;23;20288;-84
2023/02/05 09:10:59;;;;;;;11.17;9.20;;;;;;;7.52;53.11;97273.22;6008059;23;20239;-84
2023/02/05 09:13:26;;;;;;;15.20;12.07;;;;;;;7.57;53.42;97264.25;6063319;23;20213;-84
2023/02/05 09:15:53;;;;;;;8.00;7.13;;;;;;;7.60;53.34;97258.09;6039836;23;20213;-84
2023/02/05 09:18:25;;;;;;;4.50;4.10;;;;;;;7.71;53.14;97267.50;6065003;23;20270;-83
2023/02/05 09:20:52;;;;;;;4.37;3.97;;;;;;;7.75;53.18;97259.47;6068892;23;20164;-84
2023/02/05 09:23:20;;;;;;;4.70;4.30;;;;;;;7.84;53.13;97263.09;6068894;23;20228;-84
2023/02/05 09:25:46;;;;;;;4.90;3.97;;;;;;;7.78;52.85;97261.81;6066733;23;20189;-84
2023/02/05 09:28:14;;;;;;;4.60;4.20;;;;;;;7.87;53.52;97255.16;6067582;23;20209;-85
2023/02/05 09:30:43;;;;;;;25.60;6.47;;;;;;;8.00;55.86;97253.28;6068958;23;20188;-84
2023/02/05 09:33:10;;;;;;;10.33;4.33;;;;;;;8.27;53.63;97253.66;6068012;23;20205;-84
2023/02/05 09:35:37;;;;;;;6.93;4.53;;;;;;;8.29;53.54;97251.78;6068638;23;20184;-85
2023/02/05 09:38:04;;;;;;;4.70;4.20;;;;;;;8.34;52.85;97255.78;6069792;23;20592;-84
2023/02/05 09:40:48;;;;;;;4.57;4.17;;;;;;;8.29;52.76;97258.69;6066298;23;20184;-86
2023/02/05 09:43:29;;;;;;;4.57;4.10;;;;;;;8.40;52.71;97255.31;6063267;23;20209;-86
2023/02/05 09:46:00;;;;;;;4.63;4.23;;;;;;;8.52;52.61;97255.13;6064042;23;20176;-87
2023/02/05 09:48:48;;;;;;;5.27;4.70;;;;;;;8.63;52.20;97251.72;6062961;23;20236;-85
2023/02/05 09:51:18;;;;;;;5.63;4.70;;;;;;;8.66;52.84;97243.75;6051595;23;20200;-86
2023/02/05 09:53:48;;;;;;;6.43;4.80;;;;;;;8.68;52.81;97241.88;6070142;23;20223;-86
2023/02/05 09:56:16;;;;;;;5.20;4.67;;;;;;;8.81;52.73;97237.41;6072025;23;20200;-84
2023/02/05 09:58:48;;;;;;;5.10;4.60;;;;;;;8.94;52.08;97232.06;6070519;23;20215;-84
2023/02/05 10:01:21;;;;;;;5.60;4.90;;;;;;;8.93;51.77;97227.88;6070393;23;20161;-84
2023/02/05 10:03:52;;;;;;;4.97;4.20;;;;;;;8.81;51.76;97221.19;6069566;23;20228;-83
2023/02/05 10:06:41;;;;;;;5.03;4.53;;;;;;;8.55;51.50;97216.38;6071657;23;20161;-83
2023/02/05 10:09:24;;;;;;;5.00;4.27;;;;;;;8.49;52.90;97209.16;6069786;23;20280;-83
2023/02/05 10:11:59;;;;;;;5.13;4.23;;;;;;;8.45;52.80;97201.88;6016518;23;20221;-83
2023/02/05 10:14:41;;;;;;;4.30;3.90;;;;;;;8.34;52.88;97194.19;6070250;23;20276;-83
2023/02/05 10:17:23;;;;;;;14.03;10.17;;;;;;;8.39;52.31;97190.31;6071900;23;20169;-83
2023/02/05 10:20:14;;;;;;;7.13;6.27;;;;;;;8.48;51.67;97187.00;6069958;23;20220;-84
2023/02/05 10:22:54;;;;;;;4.10;3.50;;;;;;;8.35;52.23;97188.13;6055642;23;20212;-83
2023/02/05 10:25:41;;;;;;;4.93;4.27;;;;;;;8.45;52.26;97187.28;6070953;23;20181;-83
2023/02/05 10:28:22;;;;;;;4.77;4.07;;;;;;;8.71;51.60;97162.03;6069817;23;20209;-83
2023/02/05 10:30:55;;;;;;;5.33;3.90;;;;;;;8.71;51.54;97163.78;6070884;23;20688;-83
2023/02/05 10:33:36;;;;;;;4.20;3.70;;;;;;;8.72;51.61;97153.38;6069971;23;20221;-84
2023/02/05 10:36:06;;;;;;;4.80;3.80;;;;;;;8.56;52.08;97158.97;6071940;23;20157;-83
2023/02/05 10:38:37;;;;;;;4.60;3.50;;;;;;;8.30;52.37;97158.47;6071022;23;20212;-84
2023/02/05 10:41:12;;;;;;;4.73;3.27;;;;;;;8.36;52.84;97154.63;6041962;23;20255;-86
2023/02/05 10:43:43;;;;;;;4.27;2.87;;;;;;;8.48;52.24;97148.50;6071304;23;20543;-86
2023/02/05 10:46:13;;;;;;;3.97;3.00;;;;;;;8.73;51.28;97137.03;6071278;23;20157;-84
2023/02/05 10:48:44;;;;;;;5.87;3.10;;;;;;;8.61;50.45;97128.59;6070057;23;20917;-84
2023/02/05 10:51:14;;;;;;;4.63;2.33;;;;;;;8.44;50.54;97121.47;6025459;23;20433;-84
2023/02/05 10:53:41;;;;;;;3.03;2.33;;;;;;;8.34;51.35;97133.41;6068860;23;20283;-83
2023/02/05 10:56:08;;;;;;;4.07;2.50;;;;;;;8.07;50.77;97146.69;6069518;23;20173;-84
2023/02/05 10:58:43;;;;;;;5.10;2.47;;;;;;;8.08;51.05;97140.59;6069026;23;20207;-83
2023/02/05 11:01:16;;;;;;;4.40;2.70;;;;;;;8.06;52.17;97137.38;6069028;23;20225;-84
2023/02/05 11:03:51;;;;;;;7.13;2.97;;;;;;;8.01;51.91;97136.91;6068004;23;20205;-84
2023/02/05 11:06:19;;;;;;;7.53;2.33;;;;;;;7.90;51.92;97124.94;6068848;23;20165;-83
2023/02/05 11:08:46;;;;;;;7.33;2.83;;;;;;;7.83;52.75;97131.50;6069064;23;20318;-83
2023/02/05 11:11:21;;;;;;;6.03;2.43;;;;;;;7.75;52.03;97126.16;6068771;23;20648;-84
2023/02/05 11:13:53;;;;;;;4.60;2.50;;;;;;;7.58;51.79;97129.22;6070400;23;20212;-83
2023/02/05 11:16:23;;;;;;;3.90;2.20;;;;;;;7.43;52.68;97130.44;6037149;23;20232;-83
2023/02/05 11:18:57;;;;;;;6.20;2.70;;;;;;;7.20;53.37;97127.06;6069666;23;20204;-84
2023/02/05 11:21:45;;;;;;;4.17;2.47;;;;;;;7.16;54.00;97121.34;6071433;23;20165;-83
2023/02/05 11:24:22;;;;;;;5.90;2.87;;;;;;;7.11;54.21;97123.47;6069217;23;20215;-83
2023/02/05 11:26:49;;;;;;;7.27;3.80;;;;;;;7.08;54.35;97116.03;6069582;23;20918;-83
2023/02/05 11:29:19;;;;;;;14.50;9.37;;;;;;;7.10;54.76;97121.84;6068927;23;20216;-83
2023/02/05 11:31:47;;;;;;;7.57;4.20;;;;;;;7.04;55.50;97124.06;6069480;23;20232;-83
2023/02/05 11:34:18;;;;;;;11.97;4.27;;;;;;;7.02;55.55;97124.16;6069568;23;20449;-83
2023/02/05 11:36:51;;;;;;;5.17;3.10;;;;;;;6.82;56.61;97117.16;6070096;23;20165;-83
2023/02/05 11:39:30;;;;;;;6.10;3.27;;;;;;;6.75;57.43;97126.22;6068958;23;20209;-84
2023/02/05 11:41:57;;;;;;;5.90;2.97;;;;;;;6.78;57.34;97126.81;6068766;23;21607;-83
2023/02/05 11:44:26;;;;;;;6.80;3.20;;;;;;;6.85;57.18;97132.31;6068634;23;20216;-86
2023/02/05 11:46:57;;;;;;;5.47;3.30;;;;;;;6.85;57.50;97133.13;6069063;23;20188;-86
2023/02/05 11:49:28;;;;;;;6.33;3.73;;;;;;;6.83;57.77;97140.09;6068454;23;20244;-84
2023/02/05 11:51:56;;;;;;;10.70;3.10;;;;;;;6.79;56.90;97137.88;6070149;23;20641;-84
2023/02/05 11:54:28;;;;;;;8.27;2.50;;;;;;;6.69;56.86;97137.75;6068939;23;20208;-86
2023/02/05 11:57:03;;;;;;;5.87;2.67;;;;;;;6.66;56.76;97125.19;6069669;23;20199;-86